This is the latest recevied weather packets stored in our database for station/object WO5CID. If no packets are shown the sender has not sent any weather packets the latest 10 day(s).
| Time | Temp. | Humidity | Pressure | Rain* | Wind** | Luminosity | Snow |
|---|---|---|---|---|---|---|---|
| 1778266537 | 32.22° C | 60% | 1012.8 hPa | 0 mm | - | 825 W/m² | - |
| 1778266234 | 32.22° C | 60% | 1012.8 hPa | 0 mm | - | 747 W/m² | - |
| 1778265932 | 32.22° C | 60% | 1012.9 hPa | 0 mm | - | 811 W/m² | - |
| 1778265628 | 31.67° C | 62% | 1013 hPa | 0 mm | - | 795 W/m² | - |
| 1778265325 | 31.11° C | 64% | 1013 hPa | 0 mm | - | 766 W/m² | - |
| 1778265021 | 31.67° C | 60% | 1013 hPa | 0 mm | - | 856 W/m² | - |
| 1778264717 | 31.67° C | 62% | 1013.2 hPa | 0 mm | - | 781 W/m² | - |
| 1778264414 | 31.11° C | 64% | 1013.3 hPa | 0 mm | - | 435 W/m² | - |
| 1778264109 | 31.11° C | 63% | 1013.2 hPa | 0 mm | - | 233 W/m² | - |
| 1778263807 | 31.67° C | 62% | 1013.3 hPa | 0 mm | - | 312 W/m² | - |
| 1778263504 | 32.22° C | 60% | 1013.3 hPa | 0 mm | - | 398 W/m² | - |
| 1778263200 | 32.22° C | 61% | 1013.6 hPa | 0 mm | - | 765 W/m² | - |
| 1778262896 | 31.67° C | 63% | 1013.4 hPa | 0 mm | - | 919 W/m² | - |
| 1778262594 | 32.78° C | 59% | 1013.5 hPa | 0 mm | - | 903 W/m² | - |
| 1778262291 | 32.78° C | 59% | 1013.5 hPa | 0 mm | - | 798 W/m² | - |
| 1778261988 | 31.67° C | 63% | 1013.5 hPa | 0 mm | - | 909 W/m² | - |
| 1778261685 | 31.11° C | 65% | 1013.8 hPa | 0 mm | - | 741 W/m² | - |
| 1778261381 | 30.56° C | 65% | 1013.8 hPa | 0 mm | - | 924 W/m² | - |
| 1778261079 | 30.56° C | 68% | 1013.8 hPa | 0 mm | - | 977 W/m² | - |
| 1778260775 | 31.11° C | 65% | 1013.7 hPa | 0 mm | - | 261 W/m² | - |
| 1778260471 | 31.67° C | 61% | 1014 hPa | 0 mm | - | 914 W/m² | - |
| 1778260168 | 31.67° C | 62% | 1014 hPa | 0 mm | - | 1009 W/m² | - |
| 1778259865 | 30.56° C | 64% | 1014.1 hPa | 0 mm | - | 964 W/m² | - |
| 1778259562 | 30.56° C | 66% | 1014.1 hPa | 0 mm | - | 574 W/m² | - |
| 1778259260 | 30° C | 66% | 1014.3 hPa | 0 mm | - | 959 W/m² | - |
* Rain latest hour (hover to see other rain measurements)
** Current wind speed in m/s (hover to see current wind gust speed)